sensor_id;sensor_type;location;lat;lon;timestamp;temperature;humidity
22442;DHT22;11388;54.456;9.752;2023-04-03T04:58:48;0.30;99.90
22442;DHT22;11388;54.456;9.752;2023-04-03T05:01:16;0.20;99.90
22442;DHT22;11388;54.456;9.752;2023-04-03T05:03:46;0.20;99.90
22442;DHT22;11388;54.456;9.752;2023-04-03T05:06:16;0.20;99.90
22442;DHT22;11388;54.456;9.752;2023-04-03T05:08:42;0.20;99.90
22442;DHT22;11388;54.456;9.752;2023-04-03T05:11:10;0.30;99.90
22442;DHT22;11388;54.456;9.752;2023-04-03T05:13:39;0.20;99.90
22442;DHT22;11388;54.456;9.752;2023-04-03T05:16:05;0.20;99.90
22442;DHT22;11388;54.456;9.752;2023-04-03T05:18:31;0.30;99.90
22442;DHT22;11388;54.456;9.752;2023-04-03T05:20:57;0.30;99.90
22442;DHT22;11388;54.456;9.752;2023-04-03T05:23:24;0.30;99.90
22442;DHT22;11388;54.456;9.752;2023-04-03T05:25:49;0.30;99.90
22442;DHT22;11388;54.456;9.752;2023-04-03T05:28:18;0.30;99.90
22442;DHT22;11388;54.456;9.752;2023-04-03T05:30:46;0.30;99.90
22442;DHT22;11388;54.456;9.752;2023-04-03T05:33:23;0.40;99.90
22442;DHT22;11388;54.456;9.752;2023-04-03T05:35:53;0.40;99.90
22442;DHT22;11388;54.456;9.752;2023-04-03T05:38:19;0.40;99.90
22442;DHT22;11388;54.456;9.752;2023-04-03T05:40:45;0.50;99.90
22442;DHT22;11388;54.456;9.752;2023-04-03T05:43:11;0.40;99.90
22442;DHT22;11388;54.456;9.752;2023-04-03T05:45:37;0.50;99.90
22442;DHT22;11388;54.456;9.752;2023-04-03T05:48:05;0.50;99.90
22442;DHT22;11388;54.456;9.752;2023-04-03T05:50:31;0.60;99.90
22442;DHT22;11388;54.456;9.752;2023-04-03T05:52:57;0.70;99.90
22442;DHT22;11388;54.456;9.752;2023-04-03T05:55:24;0.70;99.90
22442;DHT22;11388;54.456;9.752;2023-04-03T05:57:49;0.80;99.90
22442;DHT22;11388;54.456;9.752;2023-04-03T06:00:21;0.80;99.90
22442;DHT22;11388;54.456;9.752;2023-04-03T06:02:50;0.90;99.90
22442;DHT22;11388;54.456;9.752;2023-04-03T06:05:16;0.90;99.90
22442;DHT22;11388;54.456;9.752;2023-04-03T06:07:41;1.00;99.90
22442;DHT22;11388;54.456;9.752;2023-04-03T06:10:08;1.10;99.90
22442;DHT22;11388;54.456;9.752;2023-04-03T06:12:34;1.10;99.90
22442;DHT22;11388;54.456;9.752;2023-04-03T06:14:59;1.20;99.90
22442;DHT22;11388;54.456;9.752;2023-04-03T06:17:26;1.30;99.90
22442;DHT22;11388;54.456;9.752;2023-04-03T06:19:52;1.30;99.90
22442;DHT22;11388;54.456;9.752;2023-04-03T06:22:18;1.50;99.90
22442;DHT22;11388;54.456;9.752;2023-04-03T06:24:44;1.60;99.90
22442;DHT22;11388;54.456;9.752;2023-04-03T06:27:10;1.70;99.90
22442;DHT22;11388;54.456;9.752;2023-04-03T06:29:36;1.80;99.90
22442;DHT22;11388;54.456;9.752;2023-04-03T06:32:02;1.90;99.90
22442;DHT22;11388;54.456;9.752;2023-04-03T06:34:28;2.00;99.90
22442;DHT22;11388;54.456;9.752;2023-04-03T06:36:54;2.10;99.90
22442;DHT22;11388;54.456;9.752;2023-04-03T06:39:21;2.10;99.90
22442;DHT22;11388;54.456;9.752;2023-04-03T06:44:40;2.40;99.90
22442;DHT22;11388;54.456;9.752;2023-04-03T06:47:16;2.50;99.90
22442;DHT22;11388;54.456;9.752;2023-04-03T06:50:08;2.60;99.90
22442;DHT22;11388;54.456;9.752;2023-04-03T06:55:45;2.80;99.90
22442;DHT22;11388;54.456;9.752;2023-04-03T06:58:17;3.00;99.90
22442;DHT22;11388;54.456;9.752;2023-04-03T07:00:48;3.00;99.90
22442;DHT22;11388;54.456;9.752;2023-04-03T07:03:30;3.10;99.90
22442;DHT22;11388;54.456;9.752;2023-04-03T07:06:05;3.20;99.90
22442;DHT22;11388;54.456;9.752;2023-04-03T07:08:35;3.30;99.90
22442;DHT22;11388;54.456;9.752;2023-04-03T07:24:17;3.70;99.90
22442;DHT22;11388;54.456;9.752;2023-04-03T07:26:43;3.70;99.90
22442;DHT22;11388;54.456;9.752;2023-04-03T07:29:10;3.80;99.90
22442;DHT22;11388;54.456;9.752;2023-04-03T07:31:36;3.90;99.90
22442;DHT22;11388;54.456;9.752;2023-04-03T07:34:02;3.90;99.90
22442;DHT22;11388;54.456;9.752;2023-04-03T07:36:28;4.00;99.90
22442;DHT22;11388;54.456;9.752;2023-04-03T07:38:54;4.00;99.90
22442;DHT22;11388;54.456;9.752;2023-04-03T07:41:21;4.10;99.90
22442;DHT22;11388;54.456;9.752;2023-04-03T07:43:50;4.20;99.90
22442;DHT22;11388;54.456;9.752;2023-04-03T07:46:18;4.20;99.90
22442;DHT22;11388;54.456;9.752;2023-04-03T07:48:44;4.30;99.90
22442;DHT22;11388;54.456;9.752;2023-04-03T07:51:10;4.40;99.90
22442;DHT22;11388;54.456;9.752;2023-04-03T07:54:01;4.50;99.90
22442;DHT22;11388;54.456;9.752;2023-04-03T07:56:27;4.60;99.90
22442;DHT22;11388;54.456;9.752;2023-04-03T07:58:57;4.60;99.90
22442;DHT22;11388;54.456;9.752;2023-04-03T08:01:23;4.70;99.90
22442;DHT22;11388;54.456;9.752;2023-04-03T08:03:49;4.80;99.90
22442;DHT22;11388;54.456;9.752;2023-04-03T09:32:00;8.00;99.90
22442;DHT22;11388;54.456;9.752;2023-04-03T09:34:30;7.90;99.90
22442;DHT22;11388;54.456;9.752;2023-04-03T09:36:59;7.90;99.90
22442;DHT22;11388;54.456;9.752;2023-04-03T13:15:56;31.30;37.90
22442;DHT22;11388;54.456;9.752;2023-04-03T13:18:32;31.20;38.20
22442;DHT22;11388;54.456;9.752;2023-04-03T13:21:05;31.60;35.90
22442;DHT22;11388;54.456;9.752;2023-04-03T13:23:35;31.30;36.40
22442;DHT22;11388;54.456;9.752;2023-04-03T13:26:04;31.20;36.00
22442;DHT22;11388;54.456;9.752;2023-04-03T13:28:32;31.10;34.80
22442;DHT22;11388;54.456;9.752;2023-04-03T13:49:34;23.40;41.20
22442;DHT22;11388;54.456;9.752;2023-04-03T14:09:12;17.50;50.50
22442;DHT22;11388;54.456;9.752;2023-04-03T14:12:42;17.10;52.20
22442;DHT22;11388;54.456;9.752;2023-04-03T14:15:32;16.50;53.40
22442;DHT22;11388;54.456;9.752;2023-04-03T14:21:53;16.10;53.90
22442;DHT22;11388;54.456;9.752;2023-04-03T14:25:05;15.70;54.70
22442;DHT22;11388;54.456;9.752;2023-04-03T14:30:45;14.90;56.00
22442;DHT22;11388;54.456;9.752;2023-04-03T14:33:22;14.60;56.90
22442;DHT22;11388;54.456;9.752;2023-04-03T14:35:48;14.60;57.30
22442;DHT22;11388;54.456;9.752;2023-04-03T14:38:28;14.40;57.30
22442;DHT22;11388;54.456;9.752;2023-04-03T14:40:55;14.30;57.90
22442;DHT22;11388;54.456;9.752;2023-04-03T14:43:21;14.20;57.90
22442;DHT22;11388;54.456;9.752;2023-04-03T14:45:48;14.30;57.50
22442;DHT22;11388;54.456;9.752;2023-04-03T14:48:23;14.60;58.00
22442;DHT22;11388;54.456;9.752;2023-04-03T14:50:50;14.70;55.80
22442;DHT22;11388;54.456;9.752;2023-04-03T14:53:17;15.50;55.00
22442;DHT22;11388;54.456;9.752;2023-04-03T14:55:47;16.00;52.30
22442;DHT22;11388;54.456;9.752;2023-04-03T14:58:19;15.80;50.10
22442;DHT22;11388;54.456;9.752;2023-04-03T15:00:48;15.50;51.10
22442;DHT22;11388;54.456;9.752;2023-04-03T15:03:20;15.40;52.30
22442;DHT22;11388;54.456;9.752;2023-04-03T15:06:07;15.50;53.50
22442;DHT22;11388;54.456;9.752;2023-04-03T15:08:34;15.30;53.00
22442;DHT22;11388;54.456;9.752;2023-04-03T15:11:02;15.00;52.60
22442;DHT22;11388;54.456;9.752;2023-04-03T15:13:28;15.20;54.50
22442;DHT22;11388;54.456;9.752;2023-04-03T15:20:15;16.10;52.00
22442;DHT22;11388;54.456;9.752;2023-04-03T15:23:12;15.50;53.90
22442;DHT22;11388;54.456;9.752;2023-04-03T15:25:42;15.30;54.10
22442;DHT22;11388;54.456;9.752;2023-04-03T15:28:32;15.10;53.80
22442;DHT22;11388;54.456;9.752;2023-04-03T15:31:23;15.10;54.00
22442;DHT22;11388;54.456;9.752;2023-04-03T15:36:52;14.70;56.00
22442;DHT22;11388;54.456;9.752;2023-04-03T15:39:25;14.60;55.20
22442;DHT22;11388;54.456;9.752;2023-04-03T15:41:54;14.50;55.80
22442;DHT22;11388;54.456;9.752;2023-04-03T15:44:32;14.40;56.00
22442;DHT22;11388;54.456;9.752;2023-04-03T15:47:05;14.30;55.70
22442;DHT22;11388;54.456;9.752;2023-04-03T15:49:33;14.10;56.90
22442;DHT22;11388;54.456;9.752;2023-04-03T15:55:45;14.20;57.40
22442;DHT22;11388;54.456;9.752;2023-04-03T15:58:53;14.00;57.20
22442;DHT22;11388;54.456;9.752;2023-04-03T16:01:44;13.80;57.60
22442;DHT22;11388;54.456;9.752;2023-04-03T16:17:16;14.20;56.80
22442;DHT22;11388;54.456;9.752;2023-04-03T16:19:41;13.90;57.40
22442;DHT22;11388;54.456;9.752;2023-04-03T16:22:07;13.60;57.80
22442;DHT22;11388;54.456;9.752;2023-04-03T16:24:33;13.40;57.80
22442;DHT22;11388;54.456;9.752;2023-04-03T16:26:59;13.10;58.80
22442;DHT22;11388;54.456;9.752;2023-04-03T16:29:24;13.00;59.20
22442;DHT22;11388;54.456;9.752;2023-04-03T16:31:50;12.90;60.00
22442;DHT22;11388;54.456;9.752;2023-04-03T16:34:17;12.80;59.20
22442;DHT22;11388;54.456;9.752;2023-04-03T16:36:43;12.60;59.90
22442;DHT22;11388;54.456;9.752;2023-04-03T16:39:08;12.50;60.00
22442;DHT22;11388;54.456;9.752;2023-04-03T16:41:35;12.30;61.20
22442;DHT22;11388;54.456;9.752;2023-04-03T16:44:01;12.20;61.40
22442;DHT22;11388;54.456;9.752;2023-04-03T16:46:27;12.10;61.60
22442;DHT22;11388;54.456;9.752;2023-04-03T16:48:53;11.80;63.00
22442;DHT22;11388;54.456;9.752;2023-04-03T16:51:19;11.80;64.30
22442;DHT22;11388;54.456;9.752;2023-04-03T16:53:45;11.60;64.80
22442;DHT22;11388;54.456;9.752;2023-04-03T16:56:10;11.60;65.00
22442;DHT22;11388;54.456;9.752;2023-04-03T16:58:36;11.60;65.20
22442;DHT22;11388;54.456;9.752;2023-04-03T17:01:13;11.50;65.00
22442;DHT22;11388;54.456;9.752;2023-04-03T17:03:42;11.20;65.30
22442;DHT22;11388;54.456;9.752;2023-04-03T17:06:11;11.10;66.80
22442;DHT22;11388;54.456;9.752;2023-04-03T17:08:46;11.00;67.20
22442;DHT22;11388;54.456;9.752;2023-04-03T17:11:12;10.80;67.50
22442;DHT22;11388;54.456;9.752;2023-04-03T17:13:38;10.70;67.50
22442;DHT22;11388;54.456;9.752;2023-04-03T17:16:06;10.50;69.00
22442;DHT22;11388;54.456;9.752;2023-04-03T17:18:36;10.30;69.90
22442;DHT22;11388;54.456;9.752;2023-04-03T17:21:03;10.10;70.30
22442;DHT22;11388;54.456;9.752;2023-04-03T17:23:30;9.90;71.40
22442;DHT22;11388;54.456;9.752;2023-04-03T17:25:56;9.80;72.30
22442;DHT22;11388;54.456;9.752;2023-04-03T17:28:22;9.60;73.40
22442;DHT22;11388;54.456;9.752;2023-04-03T17:31:02;9.50;74.10
22442;DHT22;11388;54.456;9.752;2023-04-03T17:33:29;9.30;73.90
22442;DHT22;11388;54.456;9.752;2023-04-03T17:36:02;9.20;74.10
22442;DHT22;11388;54.456;9.752;2023-04-03T17:38:30;9.10;74.10
22442;DHT22;11388;54.456;9.752;2023-04-03T17:41:01;9.00;73.60
22442;DHT22;11388;54.456;9.752;2023-04-03T17:43:28;8.90;74.60
22442;DHT22;11388;54.456;9.752;2023-04-03T17:46:00;8.90;74.80
22442;DHT22;11388;54.456;9.752;2023-04-03T17:48:31;8.70;73.90
22442;DHT22;11388;54.456;9.752;2023-04-03T17:50:57;8.60;73.70
22442;DHT22;11388;54.456;9.752;2023-04-03T17:53:23;8.60;74.30
22442;DHT22;11388;54.456;9.752;2023-04-03T17:55:51;8.50;75.40
22442;DHT22;11388;54.456;9.752;2023-04-03T17:58:17;8.50;76.30
22442;DHT22;11388;54.456;9.752;2023-04-03T18:00:43;8.40;76.60
22442;DHT22;11388;54.456;9.752;2023-04-03T18:03:09;8.40;77.50
22442;DHT22;11388;54.456;9.752;2023-04-03T18:05:36;8.30;78.30
22442;DHT22;11388;54.456;9.752;2023-04-03T18:08:02;8.20;78.60
22442;DHT22;11388;54.456;9.752;2023-04-03T18:10:28;8.10;79.80
22442;DHT22;11388;54.456;9.752;2023-04-03T18:12:55;7.90;80.50
22442;DHT22;11388;54.456;9.752;2023-04-03T18:15:23;7.80;81.20
22442;DHT22;11388;54.456;9.752;2023-04-03T18:17:50;7.60;82.60
22442;DHT22;11388;54.456;9.752;2023-04-03T18:20:21;7.50;82.40
22442;DHT22;11388;54.456;9.752;2023-04-03T18:25:37;7.20;83.80
22442;DHT22;11388;54.456;9.752;2023-04-03T18:28:04;7.10;83.50
22442;DHT22;11388;54.456;9.752;2023-04-03T18:30:32;7.10;83.30
22442;DHT22;11388;54.456;9.752;2023-04-03T18:33:01;7.00;84.60
22442;DHT22;11388;54.456;9.752;2023-04-03T18:35:27;6.90;85.00
22442;DHT22;11388;54.456;9.752;2023-04-03T18:37:52;6.80;86.00
22442;DHT22;11388;54.456;9.752;2023-04-03T18:40:18;6.80;86.20
22442;DHT22;11388;54.456;9.752;2023-04-03T18:42:44;6.70;86.80
22442;DHT22;11388;54.456;9.752;2023-04-03T18:45:11;6.60;88.70
22442;DHT22;11388;54.456;9.752;2023-04-03T18:47:38;6.60;88.40
22442;DHT22;11388;54.456;9.752;2023-04-03T18:50:05;6.60;89.20
22442;DHT22;11388;54.456;9.752;2023-04-03T18:52:31;6.50;90.20
22442;DHT22;11388;54.456;9.752;2023-04-03T18:54:57;6.40;91.00
22442;DHT22;11388;54.456;9.752;2023-04-03T18:57:23;6.40;91.90
22442;DHT22;11388;54.456;9.752;2023-04-03T18:59:51;6.30;92.10
22442;DHT22;11388;54.456;9.752;2023-04-03T19:02:17;6.10;92.90
22442;DHT22;11388;54.456;9.752;2023-04-03T19:04:46;6.10;94.00
22442;DHT22;11388;54.456;9.752;2023-04-03T19:07:12;6.00;94.60
22442;DHT22;11388;54.456;9.752;2023-04-03T19:09:38;6.00;94.60
22442;DHT22;11388;54.456;9.752;2023-04-03T19:12:06;6.00;95.00
22442;DHT22;11388;54.456;9.752;2023-04-03T19:14:32;5.90;95.10
22442;DHT22;11388;54.456;9.752;2023-04-03T19:17:00;5.80;96.20
22442;DHT22;11388;54.456;9.752;2023-04-03T19:19:27;5.70;96.10
22442;DHT22;11388;54.456;9.752;2023-04-03T19:21:53;5.60;97.00
22442;DHT22;11388;54.456;9.752;2023-04-03T19:24:20;5.60;97.00
22442;DHT22;11388;54.456;9.752;2023-04-03T19:26:46;5.60;97.20
22442;DHT22;11388;54.456;9.752;2023-04-03T19:29:12;5.60;98.60
22442;DHT22;11388;54.456;9.752;2023-04-03T19:31:38;5.50;99.60
22442;DHT22;11388;54.456;9.752;2023-04-03T19:34:05;5.40;99.90
22442;DHT22;11388;54.456;9.752;2023-04-03T19:36:32;5.30;99.90
22442;DHT22;11388;54.456;9.752;2023-04-03T19:38:58;5.30;99.90
22442;DHT22;11388;54.456;9.752;2023-04-03T19:41:27;5.20;99.90
22442;DHT22;11388;54.456;9.752;2023-04-03T19:43:54;5.20;99.90
22442;DHT22;11388;54.456;9.752;2023-04-03T19:46:25;5.20;99.90
22442;DHT22;11388;54.456;9.752;2023-04-03T19:48:52;5.20;99.90
22442;DHT22;11388;54.456;9.752;2023-04-03T19:51:18;5.20;99.90
22442;DHT22;11388;54.456;9.752;2023-04-03T19:57:06;5.00;99.90
22442;DHT22;11388;54.456;9.752;2023-04-03T19:59:33;5.00;99.90
22442;DHT22;11388;54.456;9.752;2023-04-03T20:01:59;4.90;99.90
22442;DHT22;11388;54.456;9.752;2023-04-03T20:04:30;4.90;99.90
22442;DHT22;11388;54.456;9.752;2023-04-03T20:06:56;4.80;99.90
22442;DHT22;11388;54.456;9.752;2023-04-03T20:09:21;4.70;99.90
22442;DHT22;11388;54.456;9.752;2023-04-03T20:11:47;4.60;99.90
22442;DHT22;11388;54.456;9.752;2023-04-03T20:14:14;4.60;99.90
22442;DHT22;11388;54.456;9.752;2023-04-03T20:16:41;4.60;99.90
22442;DHT22;11388;54.456;9.752;2023-04-03T20:19:07;4.60;99.90
22442;DHT22;11388;54.456;9.752;2023-04-03T20:21:33;4.40;99.90
22442;DHT22;11388;54.456;9.752;2023-04-03T20:24:00;4.40;99.90
22442;DHT22;11388;54.456;9.752;2023-04-03T20:26:28;4.30;99.90
22442;DHT22;11388;54.456;9.752;2023-04-03T20:28:57;4.30;99.90
22442;DHT22;11388;54.456;9.752;2023-04-03T20:31:24;4.20;99.90
22442;DHT22;11388;54.456;9.752;2023-04-03T20:33:51;4.10;99.90
22442;DHT22;11388;54.456;9.752;2023-04-03T20:36:17;4.10;99.90
22442;DHT22;11388;54.456;9.752;2023-04-03T20:38:47;4.10;99.90
22442;DHT22;11388;54.456;9.752;2023-04-03T20:41:15;4.20;99.90
22442;DHT22;11388;54.456;9.752;2023-04-03T20:43:41;4.10;99.90
22442;DHT22;11388;54.456;9.752;2023-04-03T20:46:09;4.10;99.90
22442;DHT22;11388;54.456;9.752;2023-04-03T20:48:35;4.00;99.90
22442;DHT22;11388;54.456;9.752;2023-04-03T20:51:13;4.00;99.90
22442;DHT22;11388;54.456;9.752;2023-04-03T20:53:42;4.00;99.90
22442;DHT22;11388;54.456;9.752;2023-04-03T20:56:08;3.90;99.90
22442;DHT22;11388;54.456;9.752;2023-04-03T20:58:35;3.90;99.90
22442;DHT22;11388;54.456;9.752;2023-04-03T21:01:11;3.90;99.90
22442;DHT22;11388;54.456;9.752;2023-04-03T21:03:37;3.80;99.90
22442;DHT22;11388;54.456;9.752;2023-04-03T21:21:02;3.70;99.90
22442;DHT22;11388;54.456;9.752;2023-04-03T21:23:29;3.70;99.90
22442;DHT22;11388;54.456;9.752;2023-04-03T21:25:56;3.60;99.90
22442;DHT22;11388;54.456;9.752;2023-04-03T21:28:24;3.50;99.90
22442;DHT22;11388;54.456;9.752;2023-04-03T21:30:52;3.50;99.90
22442;DHT22;11388;54.456;9.752;2023-04-03T21:33:18;3.60;99.90
22442;DHT22;11388;54.456;9.752;2023-04-03T21:35:44;3.60;99.90
22442;DHT22;11388;54.456;9.752;2023-04-03T21:38:10;3.40;99.90
22442;DHT22;11388;54.456;9.752;2023-04-03T21:40:36;3.30;99.90
22442;DHT22;11388;54.456;9.752;2023-04-03T21:43:01;3.30;99.90
22442;DHT22;11388;54.456;9.752;2023-04-03T21:45:29;3.30;99.90
22442;DHT22;11388;54.456;9.752;2023-04-03T21:47:55;3.30;99.90
22442;DHT22;11388;54.456;9.752;2023-04-03T21:50:20;3.20;99.90
22442;DHT22;11388;54.456;9.752;2023-04-03T21:52:46;3.20;99.90
22442;DHT22;11388;54.456;9.752;2023-04-03T21:55:12;3.20;99.90
22442;DHT22;11388;54.456;9.752;2023-04-03T21:57:39;3.10;99.90
22442;DHT22;11388;54.456;9.752;2023-04-03T22:00:06;3.10;99.90
22442;DHT22;11388;54.456;9.752;2023-04-03T22:02:38;3.10;99.90
22442;DHT22;11388;54.456;9.752;2023-04-03T22:05:04;3.00;99.90
22442;DHT22;11388;54.456;9.752;2023-04-03T22:07:30;3.00;99.90
22442;DHT22;11388;54.456;9.752;2023-04-03T22:09:55;2.90;99.90
22442;DHT22;11388;54.456;9.752;2023-04-03T22:12:35;2.90;99.90
22442;DHT22;11388;54.456;9.752;2023-04-03T22:15:01;2.80;99.90
22442;DHT22;11388;54.456;9.752;2023-04-03T22:17:30;2.80;99.90
22442;DHT22;11388;54.456;9.752;2023-04-03T22:19:56;2.80;99.90
22442;DHT22;11388;54.456;9.752;2023-04-03T22:22:21;2.80;99.90
22442;DHT22;11388;54.456;9.752;2023-04-03T22:24:49;2.80;99.90
22442;DHT22;11388;54.456;9.752;2023-04-03T22:27:15;2.80;99.90
22442;DHT22;11388;54.456;9.752;2023-04-03T22:29:40;2.80;99.90
22442;DHT22;11388;54.456;9.752;2023-04-03T22:32:06;2.80;99.90
22442;DHT22;11388;54.456;9.752;2023-04-03T22:34:32;2.80;99.90
22442;DHT22;11388;54.456;9.752;2023-04-03T22:36:59;2.80;99.90
22442;DHT22;11388;54.456;9.752;2023-04-03T22:39:25;2.80;99.90
22442;DHT22;11388;54.456;9.752;2023-04-03T22:41:51;2.70;99.90
22442;DHT22;11388;54.456;9.752;2023-04-03T22:44:17;2.70;99.90
22442;DHT22;11388;54.456;9.752;2023-04-03T22:46:42;2.70;99.90
22442;DHT22;11388;54.456;9.752;2023-04-03T22:49:08;2.70;99.90
22442;DHT22;11388;54.456;9.752;2023-04-03T22:51:34;2.70;99.90
22442;DHT22;11388;54.456;9.752;2023-04-03T22:53:59;2.70;99.90
22442;DHT22;11388;54.456;9.752;2023-04-03T22:56:25;2.60;99.90
22442;DHT22;11388;54.456;9.752;2023-04-03T22:58:51;2.60;99.90
22442;DHT22;11388;54.456;9.752;2023-04-03T23:01:16;2.60;99.90
22442;DHT22;11388;54.456;9.752;2023-04-03T23:06:48;2.50;99.90
22442;DHT22;11388;54.456;9.752;2023-04-03T23:09:13;2.50;99.90
22442;DHT22;11388;54.456;9.752;2023-04-03T23:11:39;2.50;99.90
22442;DHT22;11388;54.456;9.752;2023-04-03T23:14:05;2.50;99.90
22442;DHT22;11388;54.456;9.752;2023-04-03T23:16:31;2.50;99.90
22442;DHT22;11388;54.456;9.752;2023-04-03T23:18:57;2.40;99.90
22442;DHT22;11388;54.456;9.752;2023-04-03T23:21:22;2.40;99.90
22442;DHT22;11388;54.456;9.752;2023-04-03T23:23:48;2.40;99.90
22442;DHT22;11388;54.456;9.752;2023-04-03T23:26:14;2.40;99.90
22442;DHT22;11388;54.456;9.752;2023-04-03T23:28:39;2.30;99.90
22442;DHT22;11388;54.456;9.752;2023-04-03T23:31:06;2.40;99.90
22442;DHT22;11388;54.456;9.752;2023-04-03T23:33:36;2.40;99.90
22442;DHT22;11388;54.456;9.752;2023-04-03T23:36:07;2.30;99.90
22442;DHT22;11388;54.456;9.752;2023-04-03T23:38:33;2.20;99.90
22442;DHT22;11388;54.456;9.752;2023-04-03T23:40:59;2.20;99.90
22442;DHT22;11388;54.456;9.752;2023-04-03T23:43:26;2.30;99.90
22442;DHT22;11388;54.456;9.752;2023-04-03T23:45:55;2.20;99.90
22442;DHT22;11388;54.456;9.752;2023-04-03T23:48:41;2.20;99.90
22442;DHT22;11388;54.456;9.752;2023-04-03T23:51:10;2.20;99.90
22442;DHT22;11388;54.456;9.752;2023-04-03T23:53:38;2.10;99.90
22442;DHT22;11388;54.456;9.752;2023-04-03T23:56:04;2.10;99.90
22442;DHT22;11388;54.456;9.752;2023-04-03T23:58:34;2.10;99.90
